createdAt,value
2022-10-08T07:31:40.281Z,100.00
2022-10-08T07:34:11.991Z,100.00
2022-10-08T07:36:49.120Z,100.00
2022-10-08T07:39:24.395Z,100.00
2022-10-08T07:41:59.285Z,100.00
2022-10-08T07:44:30.488Z,100.00
2022-10-08T07:47:04.620Z,100.00
2022-10-08T07:49:32.566Z,100.00
2022-10-08T07:52:01.455Z,100.00
2022-10-08T07:54:29.884Z,100.00
2022-10-08T07:56:58.473Z,100.00
2022-10-08T07:59:32.771Z,100.00
2022-10-08T08:02:02.597Z,100.00
2022-10-08T08:04:30.844Z,100.00
2022-10-08T08:07:03.669Z,100.00
2022-10-08T08:09:34.109Z,100.00
2022-10-08T08:12:05.103Z,100.00
2022-10-08T08:14:37.718Z,100.00
2022-10-08T08:17:10.217Z,100.00
2022-10-08T08:19:50.976Z,100.00
2022-10-08T08:22:21.715Z,99.91
2022-10-08T08:25:08.276Z,100.00
2022-10-08T08:27:40.688Z,100.00
2022-10-08T08:30:11.249Z,99.29
2022-10-08T08:32:55.427Z,97.15
2022-10-08T08:35:28.769Z,97.47
2022-10-08T08:38:07.663Z,97.85
2022-10-08T08:40:42.370Z,97.19
2022-10-08T08:43:15.561Z,95.91
2022-10-08T08:45:52.497Z,91.25
2022-10-08T08:48:28.927Z,85.76
2022-10-08T08:51:14.010Z,76.46
2022-10-08T08:54:03.139Z,68.57
2022-10-08T08:56:35.639Z,64.61
2022-10-08T08:59:32.272Z,63.59
2022-10-08T09:02:28.230Z,70.56
2022-10-08T09:05:21.000Z,75.67
2022-10-08T09:08:04.316Z,74.81
2022-10-08T09:10:42.450Z,67.82
2022-10-08T09:13:22.736Z,69.47
2022-10-08T09:15:58.306Z,75.52
2022-10-08T09:22:02.477Z,78.78
2022-10-08T09:24:42.256Z,79.66
2022-10-08T09:27:17.205Z,80.40
2022-10-08T09:30:03.851Z,73.26
2022-10-08T09:32:42.800Z,71.33
2022-10-08T09:35:21.711Z,70.68
2022-10-08T09:37:56.725Z,62.82
2022-10-08T09:40:33.117Z,64.54
2022-10-08T09:43:20.130Z,67.08
2022-10-08T09:45:54.938Z,65.94
2022-10-08T09:48:33.939Z,65.30
2022-10-08T09:51:13.004Z,66.54
2022-10-08T09:53:57.649Z,69.89
2022-10-08T09:56:36.575Z,72.94
2022-10-08T09:59:27.391Z,71.42
2022-10-08T10:02:14.707Z,77.79
2022-10-08T10:04:58.370Z,76.56
2022-10-08T10:07:38.742Z,76.86
2022-10-08T10:10:19.058Z,75.89
2022-10-08T10:13:02.226Z,73.48
2022-10-08T10:15:38.720Z,68.39
2022-10-08T10:18:15.830Z,61.88
2022-10-08T10:21:00.842Z,55.63
2022-10-08T10:23:34.601Z,53.80
2022-10-08T10:26:15.828Z,49.27
2022-10-08T10:28:55.403Z,45.91
2022-10-08T10:31:35.680Z,46.43
2022-10-08T10:34:15.832Z,47.28
2022-10-08T10:36:54.552Z,44.02
2022-10-08T10:39:32.859Z,40.30
2022-10-08T10:42:15.351Z,38.20
2022-10-08T10:44:58.278Z,39.71
2022-10-08T10:47:37.843Z,36.68
2022-10-08T10:50:18.206Z,37.94
2022-10-08T10:52:55.035Z,38.41
2022-10-08T10:58:40.757Z,37.37
2022-10-08T11:01:24.716Z,37.04
2022-10-08T11:04:26.812Z,41.98
2022-10-08T11:07:13.873Z,43.74
2022-10-08T11:09:45.668Z,44.08
2022-10-08T11:12:37.980Z,46.51
2022-10-08T11:15:46.573Z,45.93
2022-10-08T11:18:28.587Z,48.11
2022-10-08T11:21:18.621Z,50.35
2022-10-08T11:24:32.750Z,52.29
2022-10-08T11:27:52.989Z,54.66
2022-10-08T11:30:40.713Z,58.41
2022-10-08T11:33:22.183Z,58.58
2022-10-08T11:36:47.261Z,61.85
2022-10-08T11:39:21.793Z,63.04
2022-10-08T11:41:55.816Z,63.50
2022-10-08T11:44:32.073Z,62.37
2022-10-08T11:47:47.481Z,63.41
2022-10-08T11:50:32.821Z,63.73
2022-10-08T11:53:17.129Z,65.53
2022-10-08T11:55:53.226Z,68.61
2022-10-08T12:02:57.701Z,64.50
2022-10-08T12:05:37.656Z,64.33
2022-10-08T12:08:07.438Z,60.99
2022-10-08T12:10:39.401Z,59.47
2022-10-08T12:13:29.783Z,57.45
2022-10-08T12:16:07.235Z,58.54
2022-10-08T12:18:55.831Z,56.85
2022-10-08T12:22:02.916Z,57.43
2022-10-08T12:24:57.009Z,54.38
2022-10-08T12:27:40.644Z,54.44
2022-10-08T12:30:12.593Z,53.85
2022-10-08T12:32:57.237Z,54.30
2022-10-08T12:35:31.051Z,53.36
2022-10-08T12:38:27.656Z,52.62
2022-10-08T12:41:04.455Z,53.62
2022-10-08T12:43:43.080Z,55.11
2022-10-08T12:46:22.814Z,56.68
2022-10-08T12:48:54.604Z,55.29
2022-10-08T12:51:27.693Z,55.52
2022-10-08T12:53:58.827Z,56.56
2022-10-08T13:01:00.529Z,57.80
2022-10-08T13:03:29.958Z,58.22
2022-10-08T13:05:59.436Z,57.76
2022-10-08T13:08:35.982Z,57.66
2022-10-08T13:11:09.841Z,56.18
2022-10-08T13:13:49.835Z,55.82
2022-10-08T13:16:26.164Z,52.73
2022-10-08T13:18:58.218Z,53.98
2022-10-08T13:21:37.812Z,53.14
2022-10-08T13:24:42.395Z,52.71
2022-10-08T13:27:32.094Z,52.87
2022-10-08T13:30:04.750Z,54.36
2022-10-08T13:32:36.210Z,56.10
2022-10-08T13:35:09.378Z,57.40
2022-10-08T13:37:46.158Z,55.34
2022-10-08T13:40:22.268Z,55.22
2022-10-08T13:42:55.812Z,55.33
2022-10-08T13:45:27.001Z,56.68
2022-10-08T13:48:00.986Z,55.19
2022-10-08T13:50:35.999Z,57.17
2022-10-08T13:53:07.954Z,58.19
2022-10-08T13:55:37.610Z,55.24
2022-10-08T13:58:09.213Z,50.12
2022-10-08T14:00:40.536Z,47.15
2022-10-08T14:03:11.153Z,45.73
2022-10-08T14:05:41.847Z,48.28
2022-10-08T14:08:16.729Z,48.74
2022-10-08T14:10:47.807Z,51.67
2022-10-08T14:13:23.263Z,53.66
2022-10-08T14:15:55.073Z,57.36
2022-10-08T14:18:25.035Z,58.16
2022-10-08T14:20:57.008Z,60.76
2022-10-08T14:23:33.978Z,62.17
2022-10-08T14:26:05.610Z,62.81
2022-10-08T14:28:46.683Z,54.76
2022-10-08T14:31:17.944Z,49.70
2022-10-08T14:33:51.583Z,48.81
2022-10-08T14:36:34.545Z,44.95
2022-10-08T14:39:06.867Z,44.87
2022-10-08T14:41:37.053Z,47.32
2022-10-08T14:44:08.896Z,45.26
2022-10-08T14:46:42.244Z,44.01
2022-10-08T14:49:22.059Z,44.56
2022-10-08T14:52:22.920Z,45.65
2022-10-08T14:55:27.059Z,44.69
2022-10-08T14:58:24.032Z,47.49
2022-10-08T15:01:40.024Z,47.66
2022-10-08T15:04:31.531Z,48.68
2022-10-08T15:07:01.650Z,50.82
2022-10-08T15:09:31.637Z,51.55
2022-10-08T15:12:01.244Z,52.35
2022-10-08T15:14:35.675Z,56.01
2022-10-08T15:17:09.582Z,57.59
2022-10-08T15:19:39.305Z,60.59
2022-10-08T15:22:09.036Z,62.88
2022-10-08T15:24:38.839Z,65.97
2022-10-08T15:27:08.912Z,69.78
2022-10-08T15:29:38.633Z,70.46
2022-10-08T15:32:10.312Z,71.28
2022-10-08T15:34:40.099Z,73.02
2022-10-08T15:37:10.315Z,73.92
2022-10-08T15:39:39.083Z,76.31
2022-10-08T15:42:07.791Z,77.86
2022-10-08T15:44:36.401Z,80.92
2022-10-08T15:47:07.188Z,82.19
2022-10-08T15:49:38.999Z,85.30
2022-10-08T15:52:08.955Z,86.15
2022-10-08T15:54:38.085Z,88.31
2022-10-08T15:57:06.635Z,91.72
2022-10-08T15:59:35.284Z,92.99
2022-10-08T16:02:04.154Z,94.08
2022-10-08T16:04:33.283Z,95.86
2022-10-08T16:07:03.964Z,96.67
2022-10-08T16:09:33.099Z,96.66
2022-10-08T16:12:02.628Z,97.54
2022-10-08T16:14:32.284Z,98.69
2022-10-08T16:17:01.952Z,99.31
2022-10-08T16:19:31.932Z,100.00
2022-10-08T16:22:04.524Z,100.00
2022-10-08T16:24:34.675Z,100.00
2022-10-08T16:27:04.612Z,100.00
2022-10-08T16:29:34.723Z,100.00
2022-10-08T16:32:04.625Z,100.00
2022-10-08T16:34:33.744Z,100.00
2022-10-08T16:37:05.242Z,100.00
2022-10-08T16:39:33.869Z,100.00
2022-10-08T16:42:03.268Z,100.00
2022-10-08T16:44:32.128Z,100.00
2022-10-08T16:47:05.924Z,100.00
2022-10-08T16:49:34.848Z,100.00
2022-10-08T16:52:08.575Z,100.00
2022-10-08T16:54:37.361Z,100.00
2022-10-08T16:57:05.963Z,100.00
2022-10-08T16:59:34.658Z,100.00
2022-10-08T17:02:03.813Z,100.00
2022-10-08T17:04:39.507Z,100.00
2022-10-08T17:07:11.256Z,100.00
2022-10-08T17:09:40.276Z,100.00
2022-10-08T17:12:09.057Z,100.00
2022-10-08T17:14:38.557Z,100.00
2022-10-08T17:17:07.337Z,100.00
2022-10-08T17:19:36.043Z,100.00
2022-10-08T17:22:04.389Z,100.00
2022-10-08T17:24:40.183Z,100.00
2022-10-08T17:27:11.911Z,100.00
2022-10-08T17:29:40.764Z,100.00
2022-10-08T17:32:11.637Z,100.00
2022-10-08T17:34:40.168Z,100.00
2022-10-08T17:37:08.694Z,100.00
2022-10-08T17:39:39.263Z,100.00
2022-10-08T17:42:08.604Z,100.00
2022-10-08T17:44:37.353Z,100.00
2022-10-08T17:47:06.583Z,100.00
2022-10-08T17:49:35.299Z,100.00
2022-10-08T17:52:03.701Z,100.00
2022-10-08T17:54:32.215Z,100.00
2022-10-08T17:57:02.368Z,100.00
2022-10-08T17:59:30.963Z,100.00
2022-10-08T18:02:00.845Z,100.00
2022-10-08T18:04:30.381Z,100.00
2022-10-08T18:07:03.243Z,100.00
2022-10-08T18:09:32.329Z,100.00
2022-10-08T18:12:02.398Z,100.00
2022-10-08T18:14:31.175Z,100.00
2022-10-08T18:17:00.709Z,100.00
2022-10-08T18:19:29.549Z,100.00
2022-10-08T18:21:58.333Z,100.00
2022-10-08T18:24:27.284Z,100.00
2022-10-08T18:26:59.601Z,100.00
2022-10-08T18:29:30.527Z,100.00
2022-10-08T18:31:59.782Z,100.00
2022-10-08T18:34:28.146Z,100.00
2022-10-08T18:36:56.688Z,100.00
2022-10-08T18:39:28.492Z,100.00
2022-10-08T18:41:57.683Z,100.00
2022-10-08T18:44:28.933Z,100.00
2022-10-08T18:47:01.735Z,100.00
2022-10-08T18:49:34.687Z,100.00
2022-10-08T18:52:03.429Z,100.00
2022-10-08T18:54:32.285Z,100.00
2022-10-08T18:57:01.088Z,100.00
2022-10-08T18:59:32.527Z,100.00
2022-10-08T19:02:01.789Z,100.00
2022-10-08T19:04:35.088Z,100.00
2022-10-08T19:07:04.076Z,100.00
2022-10-08T19:09:33.441Z,100.00
2022-10-08T19:12:02.511Z,100.00
2022-10-08T19:14:33.573Z,100.00
2022-10-08T19:17:05.103Z,100.00
2022-10-08T19:19:34.083Z,100.00
2022-10-08T19:22:03.273Z,100.00
2022-10-08T19:24:31.920Z,100.00
2022-10-08T19:27:00.801Z,100.00
2022-10-08T19:29:34.416Z,100.00
2022-10-08T19:32:04.002Z,100.00
2022-10-08T19:34:33.583Z,100.00
2022-10-08T19:37:02.402Z,100.00
2022-10-08T19:39:33.870Z,100.00
2022-10-08T19:42:02.563Z,100.00
2022-10-08T19:44:32.671Z,100.00
2022-10-08T19:47:03.879Z,100.00
2022-10-08T19:49:32.813Z,100.00
2022-10-08T19:52:01.302Z,100.00
2022-10-08T19:54:31.411Z,100.00
2022-10-08T19:56:59.995Z,100.00
2022-10-08T19:59:28.733Z,100.00
2022-10-08T20:01:59.526Z,100.00
2022-10-08T20:04:28.717Z,100.00
2022-10-08T20:06:57.462Z,100.00
2022-10-08T20:09:27.643Z,100.00
2022-10-08T20:11:57.286Z,100.00
2022-10-08T20:14:26.253Z,100.00
2022-10-08T20:16:55.266Z,100.00
2022-10-08T20:19:26.045Z,100.00
2022-10-08T20:21:56.170Z,100.00
2022-10-08T20:24:24.853Z,100.00
2022-10-08T20:26:55.194Z,100.00
2022-10-08T20:29:28.721Z,100.00
2022-10-08T20:31:59.927Z,100.00
2022-10-08T20:34:31.622Z,100.00
2022-10-08T20:37:02.985Z,100.00
2022-10-08T20:39:33.310Z,100.00
2022-10-08T20:42:01.911Z,100.00
2022-10-08T20:44:31.069Z,100.00
2022-10-08T20:47:00.749Z,100.00
2022-10-08T20:49:36.205Z,100.00
2022-10-08T20:52:05.542Z,100.00
2022-10-08T20:54:34.508Z,100.00
2022-10-08T20:57:03.266Z,100.00
2022-10-08T20:59:34.486Z,100.00
2022-10-08T21:02:04.145Z,100.00
2022-10-08T21:04:34.383Z,100.00
2022-10-08T21:07:02.865Z,100.00
2022-10-08T21:09:31.662Z,100.00
2022-10-08T21:11:59.903Z,100.00
2022-10-08T21:14:29.903Z,100.00
2022-10-08T21:16:58.445Z,100.00
2022-10-08T21:19:27.309Z,100.00
2022-10-08T21:21:58.040Z,100.00
2022-10-08T21:24:27.192Z,100.00
2022-10-08T21:26:55.973Z,100.00
2022-10-08T21:29:24.820Z,100.00
2022-10-08T21:31:53.582Z,100.00
2022-10-08T21:34:22.511Z,100.00
2022-10-08T21:36:51.412Z,100.00
2022-10-08T21:39:21.863Z,100.00
2022-10-08T21:41:52.642Z,100.00
2022-10-08T21:44:21.903Z,100.00
2022-10-08T21:46:50.918Z,100.00
2022-10-08T21:49:21.269Z,100.00
2022-10-08T21:51:50.690Z,100.00
2022-10-08T21:54:20.455Z,100.00
2022-10-08T21:56:49.780Z,100.00
2022-10-08T21:59:18.249Z,100.00
2022-10-08T22:01:48.603Z,100.00
2022-10-08T22:04:19.151Z,100.00
2022-10-08T22:06:49.121Z,100.00
2022-10-08T22:09:22.962Z,100.00
2022-10-08T22:11:57.616Z,100.00
2022-10-08T22:14:44.761Z,100.00
2022-10-08T22:17:13.283Z,100.00
2022-10-08T22:19:42.009Z,100.00
2022-10-08T22:22:10.270Z,100.00
2022-10-08T22:24:39.822Z,100.00
2022-10-08T22:27:08.162Z,100.00
2022-10-08T22:29:36.892Z,100.00
2022-10-08T22:32:06.671Z,100.00
2022-10-08T22:34:36.772Z,100.00
2022-10-08T22:37:07.458Z,100.00
2022-10-08T22:39:38.205Z,100.00
2022-10-08T22:42:08.729Z,100.00
2022-10-08T22:44:40.044Z,100.00
2022-10-08T22:47:12.095Z,100.00
2022-10-08T22:49:41.616Z,100.00
2022-10-08T22:52:11.245Z,100.00
2022-10-08T22:54:40.520Z,100.00
2022-10-08T22:57:11.006Z,98.16
2022-10-08T22:59:40.529Z,100.00
2022-10-08T23:02:09.912Z,99.85
2022-10-08T23:04:38.647Z,98.03
2022-10-08T23:07:07.523Z,98.53
2022-10-08T23:09:36.296Z,98.01
2022-10-08T23:12:05.339Z,97.69
2022-10-08T23:14:35.631Z,98.62
2022-10-08T23:17:04.092Z,99.37
2022-10-08T23:19:32.701Z,97.65
2022-10-08T23:22:01.841Z,99.06
2022-10-08T23:24:31.228Z,99.94
2022-10-08T23:27:00.222Z,100.00
2022-10-08T23:29:29.047Z,100.00
2022-10-08T23:31:59.733Z,100.00
2022-10-08T23:34:28.214Z,100.00
2022-10-08T23:36:57.049Z,100.00
2022-10-08T23:39:26.164Z,100.00
2022-10-08T23:41:54.471Z,100.00
2022-10-08T23:44:23.858Z,100.00
2022-10-08T23:46:52.876Z,100.00
2022-10-08T23:49:22.680Z,100.00
2022-10-08T23:51:51.888Z,100.00
2022-10-08T23:54:20.435Z,100.00
2022-10-08T23:56:49.129Z,100.00
2022-10-08T23:59:17.971Z,99.56
